sensor_id;sensor_type;location;lat;lon;timestamp;temperature;humidity
2663;DHT22;49701;48.072;7.800;2022-09-02T00:02:10;19.20;99.90
2663;DHT22;49701;48.072;7.800;2022-09-02T00:04:36;19.20;99.90
2663;DHT22;49701;48.072;7.800;2022-09-02T00:07:02;19.20;99.90
2663;DHT22;49701;48.072;7.800;2022-09-02T00:09:28;19.20;99.90
2663;DHT22;49701;48.072;7.800;2022-09-02T00:11:54;19.10;99.90
2663;DHT22;49701;48.072;7.800;2022-09-02T00:14:24;19.10;99.90
2663;DHT22;49701;48.072;7.800;2022-09-02T00:16:50;19.10;99.90
2663;DHT22;49701;48.072;7.800;2022-09-02T00:19:20;19.00;99.90
2663;DHT22;49701;48.072;7.800;2022-09-02T00:21:46;18.90;99.90
2663;DHT22;49701;48.072;7.800;2022-09-02T00:24:11;18.80;99.90
2663;DHT22;49701;48.072;7.800;2022-09-02T00:26:37;18.70;99.90
2663;DHT22;49701;48.072;7.800;2022-09-02T00:29:03;18.60;99.90
2663;DHT22;49701;48.072;7.800;2022-09-02T00:31:29;18.60;99.90
2663;DHT22;49701;48.072;7.800;2022-09-02T00:33:54;18.50;99.90
2663;DHT22;49701;48.072;7.800;2022-09-02T00:36:20;18.40;99.90
2663;DHT22;49701;48.072;7.800;2022-09-02T00:38:46;18.30;99.90
2663;DHT22;49701;48.072;7.800;2022-09-02T00:41:12;18.40;99.90
2663;DHT22;49701;48.072;7.800;2022-09-02T00:43:48;18.30;99.90
2663;DHT22;49701;48.072;7.800;2022-09-02T00:46:15;18.20;99.90
2663;DHT22;49701;48.072;7.800;2022-09-02T00:48:43;18.10;99.90
2663;DHT22;49701;48.072;7.800;2022-09-02T00:51:10;18.10;99.90
2663;DHT22;49701;48.072;7.800;2022-09-02T00:53:36;18.00;99.90
2663;DHT22;49701;48.072;7.800;2022-09-02T00:56:03;18.00;99.90
2663;DHT22;49701;48.072;7.800;2022-09-02T00:58:31;17.90;99.90
2663;DHT22;49701;48.072;7.800;2022-09-02T01:00:57;17.80;99.90
2663;DHT22;49701;48.072;7.800;2022-09-02T01:03:24;17.70;99.90
2663;DHT22;49701;48.072;7.800;2022-09-02T01:05:51;17.60;99.90
2663;DHT22;49701;48.072;7.800;2022-09-02T01:08:27;17.50;99.90
2663;DHT22;49701;48.072;7.800;2022-09-02T01:10:55;17.40;99.90
2663;DHT22;49701;48.072;7.800;2022-09-02T01:13:22;17.30;99.90
2663;DHT22;49701;48.072;7.800;2022-09-02T01:16:10;17.20;99.90
2663;DHT22;49701;48.072;7.800;2022-09-02T01:18:36;17.20;99.90
2663;DHT22;49701;48.072;7.800;2022-09-02T01:21:03;17.10;99.90
2663;DHT22;49701;48.072;7.800;2022-09-02T01:23:29;17.10;99.90
2663;DHT22;49701;48.072;7.800;2022-09-02T01:25:56;17.10;99.90
2663;DHT22;49701;48.072;7.800;2022-09-02T01:28:21;17.10;99.90
2663;DHT22;49701;48.072;7.800;2022-09-02T01:30:48;17.10;99.90
2663;DHT22;49701;48.072;7.800;2022-09-02T01:33:14;17.00;99.90
2663;DHT22;49701;48.072;7.800;2022-09-02T01:35:40;17.00;99.90
2663;DHT22;49701;48.072;7.800;2022-09-02T01:38:05;16.80;99.90
2663;DHT22;49701;48.072;7.800;2022-09-02T01:40:31;16.80;99.90
2663;DHT22;49701;48.072;7.800;2022-09-02T01:43:02;16.80;99.90
2663;DHT22;49701;48.072;7.800;2022-09-02T01:45:29;16.70;99.90
2663;DHT22;49701;48.072;7.800;2022-09-02T01:47:55;16.60;99.90
2663;DHT22;49701;48.072;7.800;2022-09-02T01:50:20;16.50;99.90
2663;DHT22;49701;48.072;7.800;2022-09-02T01:52:46;16.50;99.90
2663;DHT22;49701;48.072;7.800;2022-09-02T01:55:12;16.40;99.90
2663;DHT22;49701;48.072;7.800;2022-09-02T01:57:37;16.30;99.90
2663;DHT22;49701;48.072;7.800;2022-09-02T02:00:04;16.30;99.90
2663;DHT22;49701;48.072;7.800;2022-09-02T02:02:30;16.20;99.90
2663;DHT22;49701;48.072;7.800;2022-09-02T02:04:56;16.20;99.90
2663;DHT22;49701;48.072;7.800;2022-09-02T02:07:21;16.20;99.90
2663;DHT22;49701;48.072;7.800;2022-09-02T02:09:47;16.10;99.90
2663;DHT22;49701;48.072;7.800;2022-09-02T02:12:13;16.10;99.90
2663;DHT22;49701;48.072;7.800;2022-09-02T02:14:39;16.10;99.90
2663;DHT22;49701;48.072;7.800;2022-09-02T02:17:04;16.10;99.90
2663;DHT22;49701;48.072;7.800;2022-09-02T02:19:30;16.00;99.90
2663;DHT22;49701;48.072;7.800;2022-09-02T02:21:55;16.00;99.90
2663;DHT22;49701;48.072;7.800;2022-09-02T02:24:21;16.00;99.90
2663;DHT22;49701;48.072;7.800;2022-09-02T02:26:46;16.00;99.90
2663;DHT22;49701;48.072;7.800;2022-09-02T02:29:12;16.00;99.90
2663;DHT22;49701;48.072;7.800;2022-09-02T02:31:38;16.00;99.90
2663;DHT22;49701;48.072;7.800;2022-09-02T02:34:03;16.00;99.90
2663;DHT22;49701;48.072;7.800;2022-09-02T02:36:29;16.10;99.90
2663;DHT22;49701;48.072;7.800;2022-09-02T02:38:54;16.00;99.90
2663;DHT22;49701;48.072;7.800;2022-09-02T02:41:20;16.00;99.90
2663;DHT22;49701;48.072;7.800;2022-09-02T02:43:46;16.00;99.90
2663;DHT22;49701;48.072;7.800;2022-09-02T02:46:12;16.00;99.90
2663;DHT22;49701;48.072;7.800;2022-09-02T02:48:38;16.00;99.90
2663;DHT22;49701;48.072;7.800;2022-09-02T02:51:04;15.90;99.90
2663;DHT22;49701;48.072;7.800;2022-09-02T02:53:30;15.80;99.90
2663;DHT22;49701;48.072;7.800;2022-09-02T02:55:56;15.80;99.90
2663;DHT22;49701;48.072;7.800;2022-09-02T02:58:22;15.70;99.90
2663;DHT22;49701;48.072;7.800;2022-09-02T03:00:47;15.70;99.90
2663;DHT22;49701;48.072;7.800;2022-09-02T03:03:13;15.60;99.90
2663;DHT22;49701;48.072;7.800;2022-09-02T03:05:43;15.60;99.90
2663;DHT22;49701;48.072;7.800;2022-09-02T03:08:10;15.60;99.90
2663;DHT22;49701;48.072;7.800;2022-09-02T03:10:36;15.60;99.90
2663;DHT22;49701;48.072;7.800;2022-09-02T03:13:03;15.60;99.90
2663;DHT22;49701;48.072;7.800;2022-09-02T03:15:28;15.60;99.90
2663;DHT22;49701;48.072;7.800;2022-09-02T03:17:54;15.60;99.90
2663;DHT22;49701;48.072;7.800;2022-09-02T03:20:20;15.60;99.90
2663;DHT22;49701;48.072;7.800;2022-09-02T03:22:46;15.60;99.90
2663;DHT22;49701;48.072;7.800;2022-09-02T03:25:13;15.60;99.90
2663;DHT22;49701;48.072;7.800;2022-09-02T03:27:39;15.50;99.90
2663;DHT22;49701;48.072;7.800;2022-09-02T03:30:06;15.40;99.90
2663;DHT22;49701;48.072;7.800;2022-09-02T03:32:32;15.30;99.90
2663;DHT22;49701;48.072;7.800;2022-09-02T03:34:57;15.30;99.90
2663;DHT22;49701;48.072;7.800;2022-09-02T03:37:23;15.30;99.90
2663;DHT22;49701;48.072;7.800;2022-09-02T03:39:48;15.20;99.90
2663;DHT22;49701;48.072;7.800;2022-09-02T03:42:14;15.20;99.90
2663;DHT22;49701;48.072;7.800;2022-09-02T03:44:40;15.20;99.90
2663;DHT22;49701;48.072;7.800;2022-09-02T03:47:06;15.10;99.90
2663;DHT22;49701;48.072;7.800;2022-09-02T03:49:32;15.00;99.90
2663;DHT22;49701;48.072;7.800;2022-09-02T03:51:57;15.00;99.90
2663;DHT22;49701;48.072;7.800;2022-09-02T03:54:23;14.90;99.90
2663;DHT22;49701;48.072;7.800;2022-09-02T03:56:48;14.90;99.90
2663;DHT22;49701;48.072;7.800;2022-09-02T03:59:14;14.80;99.90
2663;DHT22;49701;48.072;7.800;2022-09-02T04:01:39;14.80;99.90
2663;DHT22;49701;48.072;7.800;2022-09-02T04:04:05;14.90;99.90
2663;DHT22;49701;48.072;7.800;2022-09-02T04:06:31;14.90;99.90
2663;DHT22;49701;48.072;7.800;2022-09-02T04:08:56;15.00;99.90
2663;DHT22;49701;48.072;7.800;2022-09-02T04:11:22;15.00;99.90
2663;DHT22;49701;48.072;7.800;2022-09-02T04:13:48;15.00;99.90
2663;DHT22;49701;48.072;7.800;2022-09-02T04:16:15;15.00;99.90
2663;DHT22;49701;48.072;7.800;2022-09-02T04:18:41;15.00;99.90
2663;DHT22;49701;48.072;7.800;2022-09-02T04:21:07;14.90;99.90
2663;DHT22;49701;48.072;7.800;2022-09-02T04:23:32;14.90;99.90
2663;DHT22;49701;48.072;7.800;2022-09-02T04:25:58;14.80;99.90
2663;DHT22;49701;48.072;7.800;2022-09-02T04:28:27;14.80;99.90
2663;DHT22;49701;48.072;7.800;2022-09-02T04:30:52;14.70;99.90
2663;DHT22;49701;48.072;7.800;2022-09-02T04:33:18;14.70;99.90
2663;DHT22;49701;48.072;7.800;2022-09-02T04:35:44;14.70;99.90
2663;DHT22;49701;48.072;7.800;2022-09-02T04:38:10;14.60;99.90
2663;DHT22;49701;48.072;7.800;2022-09-02T04:40:39;14.60;99.90
2663;DHT22;49701;48.072;7.800;2022-09-02T04:43:06;14.60;99.90
2663;DHT22;49701;48.072;7.800;2022-09-02T04:45:31;14.60;99.90
2663;DHT22;49701;48.072;7.800;2022-09-02T04:47:56;14.60;99.90
2663;DHT22;49701;48.072;7.800;2022-09-02T04:50:22;14.60;99.90
2663;DHT22;49701;48.072;7.800;2022-09-02T04:52:47;14.60;99.90
2663;DHT22;49701;48.072;7.800;2022-09-02T04:55:13;14.50;99.90
2663;DHT22;49701;48.072;7.800;2022-09-02T04:57:38;14.60;99.90
2663;DHT22;49701;48.072;7.800;2022-09-02T05:00:06;14.60;99.90
2663;DHT22;49701;48.072;7.800;2022-09-02T05:02:32;14.70;99.90
2663;DHT22;49701;48.072;7.800;2022-09-02T05:04:58;14.60;99.90
2663;DHT22;49701;48.072;7.800;2022-09-02T05:07:23;14.70;99.90
2663;DHT22;49701;48.072;7.800;2022-09-02T05:09:49;14.70;99.90
2663;DHT22;49701;48.072;7.800;2022-09-02T05:12:14;14.70;99.90
2663;DHT22;49701;48.072;7.800;2022-09-02T05:14:40;14.70;99.90
2663;DHT22;49701;48.072;7.800;2022-09-02T05:17:05;14.60;99.90
2663;DHT22;49701;48.072;7.800;2022-09-02T05:19:31;14.60;99.90
2663;DHT22;49701;48.072;7.800;2022-09-02T05:21:56;14.60;99.90
2663;DHT22;49701;48.072;7.800;2022-09-02T05:24:23;14.70;99.90
2663;DHT22;49701;48.072;7.800;2022-09-02T05:26:49;14.70;99.90
2663;DHT22;49701;48.072;7.800;2022-09-02T05:29:15;14.70;99.90
2663;DHT22;49701;48.072;7.800;2022-09-02T05:31:43;14.80;99.90
2663;DHT22;49701;48.072;7.800;2022-09-02T05:34:09;14.90;99.90
2663;DHT22;49701;48.072;7.800;2022-09-02T05:36:34;14.90;99.90
2663;DHT22;49701;48.072;7.800;2022-09-02T05:39:00;15.00;99.90
2663;DHT22;49701;48.072;7.800;2022-09-02T05:41:26;15.10;99.90
2663;DHT22;49701;48.072;7.800;2022-09-02T05:43:53;15.20;99.90
2663;DHT22;49701;48.072;7.800;2022-09-02T05:46:20;15.30;99.90
2663;DHT22;49701;48.072;7.800;2022-09-02T05:48:47;15.30;99.90
2663;DHT22;49701;48.072;7.800;2022-09-02T05:51:38;15.40;99.90
2663;DHT22;49701;48.072;7.800;2022-09-02T05:54:06;15.50;99.90
2663;DHT22;49701;48.072;7.800;2022-09-02T05:56:32;15.60;99.90
2663;DHT22;49701;48.072;7.800;2022-09-02T05:58:57;15.80;99.90
2663;DHT22;49701;48.072;7.800;2022-09-02T06:01:24;15.90;99.90
2663;DHT22;49701;48.072;7.800;2022-09-02T06:03:49;16.00;99.90
2663;DHT22;49701;48.072;7.800;2022-09-02T06:06:17;16.10;99.90
2663;DHT22;49701;48.072;7.800;2022-09-02T06:08:43;16.20;99.90
2663;DHT22;49701;48.072;7.800;2022-09-02T06:11:09;16.20;99.90
2663;DHT22;49701;48.072;7.800;2022-09-02T06:13:36;16.30;99.90
2663;DHT22;49701;48.072;7.800;2022-09-02T06:16:02;16.50;99.90
2663;DHT22;49701;48.072;7.800;2022-09-02T06:18:27;16.70;99.90
2663;DHT22;49701;48.072;7.800;2022-09-02T06:20:53;16.70;99.90
2663;DHT22;49701;48.072;7.800;2022-09-02T06:23:19;16.90;99.90
2663;DHT22;49701;48.072;7.800;2022-09-02T06:25:45;17.10;99.90
2663;DHT22;49701;48.072;7.800;2022-09-02T06:28:11;17.20;99.90
2663;DHT22;49701;48.072;7.800;2022-09-02T06:30:38;17.40;99.90
2663;DHT22;49701;48.072;7.800;2022-09-02T06:33:04;17.50;99.90
2663;DHT22;49701;48.072;7.800;2022-09-02T06:35:29;17.70;99.90
2663;DHT22;49701;48.072;7.800;2022-09-02T06:37:56;17.90;99.90
2663;DHT22;49701;48.072;7.800;2022-09-02T06:40:22;18.20;99.90
2663;DHT22;49701;48.072;7.800;2022-09-02T06:42:47;18.40;99.90
2663;DHT22;49701;48.072;7.800;2022-09-02T06:45:14;18.60;99.90
2663;DHT22;49701;48.072;7.800;2022-09-02T06:47:40;18.70;99.90
2663;DHT22;49701;48.072;7.800;2022-09-02T06:50:06;19.00;99.90
2663;DHT22;49701;48.072;7.800;2022-09-02T06:52:31;19.20;99.90
2663;DHT22;49701;48.072;7.800;2022-09-02T06:54:57;19.30;99.90
2663;DHT22;49701;48.072;7.800;2022-09-02T06:57:22;19.50;99.90
2663;DHT22;49701;48.072;7.800;2022-09-02T06:59:48;19.70;99.90
2663;DHT22;49701;48.072;7.800;2022-09-02T07:02:13;19.80;99.90
2663;DHT22;49701;48.072;7.800;2022-09-02T07:04:39;20.00;99.90
2663;DHT22;49701;48.072;7.800;2022-09-02T07:07:23;20.20;99.90
2663;DHT22;49701;48.072;7.800;2022-09-02T07:09:49;20.30;99.90
2663;DHT22;49701;48.072;7.800;2022-09-02T07:12:14;20.50;99.90
2663;DHT22;49701;48.072;7.800;2022-09-02T07:14:42;20.70;99.90
2663;DHT22;49701;48.072;7.800;2022-09-02T07:17:09;20.90;99.90
2663;DHT22;49701;48.072;7.800;2022-09-02T07:19:35;21.10;99.90
2663;DHT22;49701;48.072;7.800;2022-09-02T07:22:02;21.20;99.90
2663;DHT22;49701;48.072;7.800;2022-09-02T07:24:28;21.40;99.90
2663;DHT22;49701;48.072;7.800;2022-09-02T07:26:53;21.50;99.90
2663;DHT22;49701;48.072;7.800;2022-09-02T07:29:19;21.70;99.90
2663;DHT22;49701;48.072;7.800;2022-09-02T07:31:45;21.80;99.90
2663;DHT22;49701;48.072;7.800;2022-09-02T07:34:11;22.00;99.90
2663;DHT22;49701;48.072;7.800;2022-09-02T07:36:38;22.10;99.90
2663;DHT22;49701;48.072;7.800;2022-09-02T07:39:05;22.30;99.90
2663;DHT22;49701;48.072;7.800;2022-09-02T07:41:31;22.50;99.90
2663;DHT22;49701;48.072;7.800;2022-09-02T07:43:57;22.60;99.90
2663;DHT22;49701;48.072;7.800;2022-09-02T07:46:22;22.70;99.90
2663;DHT22;49701;48.072;7.800;2022-09-02T07:48:48;22.80;99.90
2663;DHT22;49701;48.072;7.800;2022-09-02T07:51:15;22.90;99.90
2663;DHT22;49701;48.072;7.800;2022-09-02T07:53:41;23.00;99.90
2663;DHT22;49701;48.072;7.800;2022-09-02T07:56:07;23.20;99.90
2663;DHT22;49701;48.072;7.800;2022-09-02T07:58:33;23.40;99.90
2663;DHT22;49701;48.072;7.800;2022-09-02T08:00:59;23.50;99.90
2663;DHT22;49701;48.072;7.800;2022-09-02T08:03:25;23.70;99.90
2663;DHT22;49701;48.072;7.800;2022-09-02T08:05:51;23.80;99.90
2663;DHT22;49701;48.072;7.800;2022-09-02T08:08:17;24.00;99.90
2663;DHT22;49701;48.072;7.800;2022-09-02T08:10:45;24.10;99.90
2663;DHT22;49701;48.072;7.800;2022-09-02T08:13:11;24.40;99.90
2663;DHT22;49701;48.072;7.800;2022-09-02T08:15:36;24.50;99.90
2663;DHT22;49701;48.072;7.800;2022-09-02T08:18:03;24.80;99.90
2663;DHT22;49701;48.072;7.800;2022-09-02T08:20:29;24.90;99.70
2663;DHT22;49701;48.072;7.800;2022-09-02T08:22:55;25.00;98.60
2663;DHT22;49701;48.072;7.800;2022-09-02T08:25:20;25.10;98.20
2663;DHT22;49701;48.072;7.800;2022-09-02T08:27:45;25.30;97.90
2663;DHT22;49701;48.072;7.800;2022-09-02T08:30:11;25.60;97.50
2663;DHT22;49701;48.072;7.800;2022-09-02T08:32:37;25.80;97.20
2663;DHT22;49701;48.072;7.800;2022-09-02T08:35:03;26.10;96.60
2663;DHT22;49701;48.072;7.800;2022-09-02T08:37:29;26.30;96.00
2663;DHT22;49701;48.072;7.800;2022-09-02T08:39:58;26.60;95.80
2663;DHT22;49701;48.072;7.800;2022-09-02T08:42:31;26.70;95.00
2663;DHT22;49701;48.072;7.800;2022-09-02T08:44:58;26.80;94.00
2663;DHT22;49701;48.072;7.800;2022-09-02T08:47:25;27.10;93.90
2663;DHT22;49701;48.072;7.800;2022-09-02T08:49:58;27.30;93.50
2663;DHT22;49701;48.072;7.800;2022-09-02T08:52:27;27.50;92.60
2663;DHT22;49701;48.072;7.800;2022-09-02T08:54:54;27.80;92.10
2663;DHT22;49701;48.072;7.800;2022-09-02T08:57:21;28.00;91.40
2663;DHT22;49701;48.072;7.800;2022-09-02T08:59:51;28.10;91.00
2663;DHT22;49701;48.072;7.800;2022-09-02T09:05:06;28.40;89.40
2663;DHT22;49701;48.072;7.800;2022-09-02T09:10:23;28.80;84.80
2663;DHT22;49701;48.072;7.800;2022-09-02T09:15:26;29.00;82.70
2663;DHT22;49701;48.072;7.800;2022-09-02T09:17:56;29.20;81.10
2663;DHT22;49701;48.072;7.800;2022-09-02T09:20:26;29.40;79.50
2663;DHT22;49701;48.072;7.800;2022-09-02T09:22:54;29.40;79.50
2663;DHT22;49701;48.072;7.800;2022-09-02T09:25:21;29.50;78.80
2663;DHT22;49701;48.072;7.800;2022-09-02T09:27:55;29.60;77.10
2663;DHT22;49701;48.072;7.800;2022-09-02T09:30:20;29.60;76.20
2663;DHT22;49701;48.072;7.800;2022-09-02T09:32:46;29.70;75.40
2663;DHT22;49701;48.072;7.800;2022-09-02T09:35:14;29.90;75.10
2663;DHT22;49701;48.072;7.800;2022-09-02T09:37:41;30.20;74.10
2663;DHT22;49701;48.072;7.800;2022-09-02T09:40:20;30.20;72.90
2663;DHT22;49701;48.072;7.800;2022-09-02T09:48:21;30.60;71.10
2663;DHT22;49701;48.072;7.800;2022-09-02T09:50:49;30.80;69.50
2663;DHT22;49701;48.072;7.800;2022-09-02T09:53:33;30.70;69.10
2663;DHT22;49701;48.072;7.800;2022-09-02T09:58:36;30.80;66.90
2663;DHT22;49701;48.072;7.800;2022-09-02T10:01:20;30.80;64.90
2663;DHT22;49701;48.072;7.800;2022-09-02T10:03:53;30.80;63.50
2663;DHT22;49701;48.072;7.800;2022-09-02T10:06:21;30.80;64.30
2663;DHT22;49701;48.072;7.800;2022-09-02T10:11:19;31.10;63.30
2663;DHT22;49701;48.072;7.800;2022-09-02T10:13:45;31.30;63.00
2663;DHT22;49701;48.072;7.800;2022-09-02T10:18:56;31.60;62.00
2663;DHT22;49701;48.072;7.800;2022-09-02T10:26:55;31.50;60.70
2663;DHT22;49701;48.072;7.800;2022-09-02T10:32:56;31.80;60.60
2663;DHT22;49701;48.072;7.800;2022-09-02T10:34:59;32.00;60.00
2663;DHT22;49701;48.072;7.800;2022-09-02T10:40:25;32.60;59.30
2663;DHT22;49701;48.072;7.800;2022-09-02T10:43:09;32.90;58.80
2663;DHT22;49701;48.072;7.800;2022-09-02T10:48:08;33.40;57.30
2663;DHT22;49701;48.072;7.800;2022-09-02T10:50:42;33.50;56.60
2663;DHT22;49701;48.072;7.800;2022-09-02T10:55:36;33.70;55.20
2663;DHT22;49701;48.072;7.800;2022-09-02T11:00:32;33.80;53.80
2663;DHT22;49701;48.072;7.800;2022-09-02T11:05:40;34.20;53.90
2663;DHT22;49701;48.072;7.800;2022-09-02T11:08:09;34.40;53.80
2663;DHT22;49701;48.072;7.800;2022-09-02T11:10:57;34.60;53.30
2663;DHT22;49701;48.072;7.800;2022-09-02T11:13:30;34.80;52.70
2663;DHT22;49701;48.072;7.800;2022-09-02T11:16:00;35.00;52.50
2663;DHT22;49701;48.072;7.800;2022-09-02T11:18:31;35.30;51.50
2663;DHT22;49701;48.072;7.800;2022-09-02T11:24:03;35.70;51.00
2663;DHT22;49701;48.072;7.800;2022-09-02T11:29:02;35.90;50.20
2663;DHT22;49701;48.072;7.800;2022-09-02T11:31:32;36.10;49.90
2663;DHT22;49701;48.072;7.800;2022-09-02T11:36:27;36.40;49.60
2663;DHT22;49701;48.072;7.800;2022-09-02T11:38:56;36.60;48.80
2663;DHT22;49701;48.072;7.800;2022-09-02T11:44:10;36.70;48.40
2663;DHT22;49701;48.072;7.800;2022-09-02T11:54:39;36.60;48.10
2663;DHT22;49701;48.072;7.800;2022-09-02T11:57:05;36.60;48.40
2663;DHT22;49701;48.072;7.800;2022-09-02T12:07:46;36.90;47.40
2663;DHT22;49701;48.072;7.800;2022-09-02T12:10:46;36.90;47.90
2663;DHT22;49701;48.072;7.800;2022-09-02T12:15:24;37.20;47.00
2663;DHT22;49701;48.072;7.800;2022-09-02T12:23:00;37.50;46.60
2663;DHT22;49701;48.072;7.800;2022-09-02T12:33:33;37.00;46.50
2663;DHT22;49701;48.072;7.800;2022-09-02T12:35:59;36.80;47.00
2663;DHT22;49701;48.072;7.800;2022-09-02T12:46:00;37.10;46.40
2663;DHT22;49701;48.072;7.800;2022-09-02T12:48:33;37.00;46.50
2663;DHT22;49701;48.072;7.800;2022-09-02T12:51:01;36.80;46.70
2663;DHT22;49701;48.072;7.800;2022-09-02T12:53:31;36.90;46.70
2663;DHT22;49701;48.072;7.800;2022-09-02T12:58:31;37.00;46.80
2663;DHT22;49701;48.072;7.800;2022-09-02T13:01:02;37.10;46.40
2663;DHT22;49701;48.072;7.800;2022-09-02T13:18:38;37.90;44.80
2663;DHT22;49701;48.072;7.800;2022-09-02T13:29:05;37.70;45.70
2663;DHT22;49701;48.072;7.800;2022-09-02T13:31:36;37.60;45.50
2663;DHT22;49701;48.072;7.800;2022-09-02T13:34:03;37.30;46.40
2663;DHT22;49701;48.072;7.800;2022-09-02T13:36:36;37.20;46.10
2663;DHT22;49701;48.072;7.800;2022-09-02T13:41:37;36.80;46.30
2663;DHT22;49701;48.072;7.800;2022-09-02T13:44:07;36.60;46.50
2663;DHT22;49701;48.072;7.800;2022-09-02T13:46:41;36.50;47.00
2663;DHT22;49701;48.072;7.800;2022-09-02T13:49:06;36.50;47.50
2663;DHT22;49701;48.072;7.800;2022-09-02T13:51:32;36.50;47.20
2663;DHT22;49701;48.072;7.800;2022-09-02T13:53:58;36.60;47.40
2663;DHT22;49701;48.072;7.800;2022-09-02T13:56:24;36.60;47.20
2663;DHT22;49701;48.072;7.800;2022-09-02T13:58:52;36.70;47.20
2663;DHT22;49701;48.072;7.800;2022-09-02T14:03:46;36.60;45.90
2663;DHT22;49701;48.072;7.800;2022-09-02T14:06:12;36.40;46.90
2663;DHT22;49701;48.072;7.800;2022-09-02T14:08:39;36.30;47.20
2663;DHT22;49701;48.072;7.800;2022-09-02T14:11:04;36.30;47.20
2663;DHT22;49701;48.072;7.800;2022-09-02T14:13:31;36.20;47.30
2663;DHT22;49701;48.072;7.800;2022-09-02T14:16:22;36.10;47.40
2663;DHT22;49701;48.072;7.800;2022-09-02T14:19:01;36.00;47.30
2663;DHT22;49701;48.072;7.800;2022-09-02T14:21:27;36.00;47.40
2663;DHT22;49701;48.072;7.800;2022-09-02T14:23:52;35.90;47.50
2663;DHT22;49701;48.072;7.800;2022-09-02T14:26:26;35.90;47.50
2663;DHT22;49701;48.072;7.800;2022-09-02T14:28:52;35.80;47.40
2663;DHT22;49701;48.072;7.800;2022-09-02T14:31:25;35.80;47.50
2663;DHT22;49701;48.072;7.800;2022-09-02T14:33:53;35.70;47.10
2663;DHT22;49701;48.072;7.800;2022-09-02T14:38:51;35.20;47.40
2663;DHT22;49701;48.072;7.800;2022-09-02T14:41:22;34.90;48.20
2663;DHT22;49701;48.072;7.800;2022-09-02T14:43:57;34.60;47.70
2663;DHT22;49701;48.072;7.800;2022-09-02T14:46:24;34.50;48.60
2663;DHT22;49701;48.072;7.800;2022-09-02T14:48:55;34.30;49.00
2663;DHT22;49701;48.072;7.800;2022-09-02T14:51:21;34.30;49.50
2663;DHT22;49701;48.072;7.800;2022-09-02T14:53:47;34.20;49.70
2663;DHT22;49701;48.072;7.800;2022-09-02T14:56:12;34.10;49.80
2663;DHT22;49701;48.072;7.800;2022-09-02T14:58:38;34.00;50.10
2663;DHT22;49701;48.072;7.800;2022-09-02T15:01:03;33.80;50.90
2663;DHT22;49701;48.072;7.800;2022-09-02T15:03:35;33.40;51.60
2663;DHT22;49701;48.072;7.800;2022-09-02T15:06:01;33.00;51.50
2663;DHT22;49701;48.072;7.800;2022-09-02T15:08:26;32.70;51.70
2663;DHT22;49701;48.072;7.800;2022-09-02T15:10:52;32.20;52.20
2663;DHT22;49701;48.072;7.800;2022-09-02T15:15:44;31.30;54.00
2663;DHT22;49701;48.072;7.800;2022-09-02T15:18:09;30.90;55.10
2663;DHT22;49701;48.072;7.800;2022-09-02T15:20:35;30.60;55.80
2663;DHT22;49701;48.072;7.800;2022-09-02T15:23:01;30.20;56.70
2663;DHT22;49701;48.072;7.800;2022-09-02T15:25:27;29.90;57.40
2663;DHT22;49701;48.072;7.800;2022-09-02T15:27:53;29.70;57.50
2663;DHT22;49701;48.072;7.800;2022-09-02T15:30:18;29.60;56.80
2663;DHT22;49701;48.072;7.800;2022-09-02T15:32:44;29.40;57.00
2663;DHT22;49701;48.072;7.800;2022-09-02T15:35:09;29.30;57.50
2663;DHT22;49701;48.072;7.800;2022-09-02T15:37:35;29.10;57.80
2663;DHT22;49701;48.072;7.800;2022-09-02T15:40:03;28.90;58.30
2663;DHT22;49701;48.072;7.800;2022-09-02T15:42:32;28.80;58.90
2663;DHT22;49701;48.072;7.800;2022-09-02T15:44:57;28.70;58.70
2663;DHT22;49701;48.072;7.800;2022-09-02T15:47:23;28.50;59.00
2663;DHT22;49701;48.072;7.800;2022-09-02T15:49:49;28.50;59.70
2663;DHT22;49701;48.072;7.800;2022-09-02T15:52:16;28.40;60.80
2663;DHT22;49701;48.072;7.800;2022-09-02T15:54:41;28.20;62.00
2663;DHT22;49701;48.072;7.800;2022-09-02T15:57:07;28.00;62.30
2663;DHT22;49701;48.072;7.800;2022-09-02T15:59:32;27.70;63.10
2663;DHT22;49701;48.072;7.800;2022-09-02T16:01:58;27.60;63.70
2663;DHT22;49701;48.072;7.800;2022-09-02T16:04:24;27.50;64.30
2663;DHT22;49701;48.072;7.800;2022-09-02T16:06:51;27.30;64.40
2663;DHT22;49701;48.072;7.800;2022-09-02T16:09:17;27.10;65.20
2663;DHT22;49701;48.072;7.800;2022-09-02T16:11:44;26.90;65.90
2663;DHT22;49701;48.072;7.800;2022-09-02T16:14:09;26.80;66.90
2663;DHT22;49701;48.072;7.800;2022-09-02T16:16:35;26.60;68.60
2663;DHT22;49701;48.072;7.800;2022-09-02T16:19:02;26.20;65.90
2663;DHT22;49701;48.072;7.800;2022-09-02T16:21:28;25.90;66.10
2663;DHT22;49701;48.072;7.800;2022-09-02T16:23:53;25.50;67.00
2663;DHT22;49701;48.072;7.800;2022-09-02T16:26:25;25.10;68.20
2663;DHT22;49701;48.072;7.800;2022-09-02T16:28:52;24.80;69.60
2663;DHT22;49701;48.072;7.800;2022-09-02T16:31:19;24.60;70.60
2663;DHT22;49701;48.072;7.800;2022-09-02T16:33:52;24.30;71.60
2663;DHT22;49701;48.072;7.800;2022-09-02T16:36:18;24.20;72.90
2663;DHT22;49701;48.072;7.800;2022-09-02T16:38:43;24.00;74.10
2663;DHT22;49701;48.072;7.800;2022-09-02T16:41:31;23.80;75.30
2663;DHT22;49701;48.072;7.800;2022-09-02T16:43:56;23.60;76.70
2663;DHT22;49701;48.072;7.800;2022-09-02T16:46:22;23.30;78.30
2663;DHT22;49701;48.072;7.800;2022-09-02T16:48:47;23.10;79.50
2663;DHT22;49701;48.072;7.800;2022-09-02T16:51:13;23.00;80.40
2663;DHT22;49701;48.072;7.800;2022-09-02T16:53:39;22.80;81.10
2663;DHT22;49701;48.072;7.800;2022-09-02T16:56:04;22.80;81.70
2663;DHT22;49701;48.072;7.800;2022-09-02T16:58:30;22.70;82.70
2663;DHT22;49701;48.072;7.800;2022-09-02T17:00:56;22.60;83.40
2663;DHT22;49701;48.072;7.800;2022-09-02T17:03:22;22.60;84.30
2663;DHT22;49701;48.072;7.800;2022-09-02T17:05:47;22.50;84.90
2663;DHT22;49701;48.072;7.800;2022-09-02T17:08:13;22.50;85.80
2663;DHT22;49701;48.072;7.800;2022-09-02T17:10:39;22.40;86.50
2663;DHT22;49701;48.072;7.800;2022-09-02T17:13:04;22.30;88.20
2663;DHT22;49701;48.072;7.800;2022-09-02T17:15:30;22.30;88.30
2663;DHT22;49701;48.072;7.800;2022-09-02T17:17:55;22.20;89.00
2663;DHT22;49701;48.072;7.800;2022-09-02T17:20:21;22.20;89.90
2663;DHT22;49701;48.072;7.800;2022-09-02T17:22:47;22.10;90.30
2663;DHT22;49701;48.072;7.800;2022-09-02T17:25:13;22.10;90.60
2663;DHT22;49701;48.072;7.800;2022-09-02T17:27:39;22.10;90.90
2663;DHT22;49701;48.072;7.800;2022-09-02T17:30:07;22.10;91.20
2663;DHT22;49701;48.072;7.800;2022-09-02T17:32:32;22.00;91.50
2663;DHT22;49701;48.072;7.800;2022-09-02T17:34:59;22.00;91.90
2663;DHT22;49701;48.072;7.800;2022-09-02T17:37:26;21.90;92.40
2663;DHT22;49701;48.072;7.800;2022-09-02T17:39:52;21.90;92.70
2663;DHT22;49701;48.072;7.800;2022-09-02T17:42:17;21.80;93.10
2663;DHT22;49701;48.072;7.800;2022-09-02T17:44:43;21.80;93.60
2663;DHT22;49701;48.072;7.800;2022-09-02T17:47:10;21.80;94.10
2663;DHT22;49701;48.072;7.800;2022-09-02T17:49:36;21.70;94.40
2663;DHT22;49701;48.072;7.800;2022-09-02T17:52:05;21.70;94.60
2663;DHT22;49701;48.072;7.800;2022-09-02T17:54:32;21.70;94.80